Savannah, GA

03:20 AM EDT del 29 Marzo 2015 (GMT -0400)
Wright Army Air Field | | Change Station
CLOSE
Current Station
Aeroporto
Location: Ft. Stewart,
Altitudine: 46 ft
Stazioni meteo nelle vicinanze

Alt. 46 ft 31.89 °N, 81.56 °W | Updated 22 minutes ago

Sereno
Sereno
37 °F
Sembra 37 °F
N
0
Vento Variabile Vento da Nord

Oggi
Massima -- | Minima -- °F
--% Possibilità di precip.
Ieri
Massima -- | Minima -- °F
Precip. -- in
7:17 AM 7:42 PM
Gobba a ponente, 69% visible
Pressione 30.25 in
Visibilità 10.0 miglia
Nuvole Sereno
Punto di rugiada 31 °F
Umidità 78%
Piovosità 0.00 in
Spessore del manto nevoso Non disponibile.
Raggi UV 0 fuori da 12
Polline 8.90 fuori da 12
Qualità dell'aria Non disponibile.
Flu Activity Non disponibile.
METAR KLHW 290658Z AUTO 00000KT 10SM CLR 03/M01 A3024 RMK AO2 SLP243 T00281007

More Conditions Fewer Conditions

Pressione 30.25 in
Visibilità 10.0 miglia
Nuvole Sereno
Punto di rugiada 31 °F
Umidità 78%
Piovosità 0.00 in
Spessore del manto nevoso Non disponibile.
Raggi UV 0 fuori da 12
Polline 8.90 fuori da 12
Qualità dell'aria Non disponibile.
Flu Activity Non disponibile.
METAR KLHW 290658Z AUTO 00000KT 10SM CLR 03/M01 A3024 RMK AO2 SLP243 T00281007

More Conditions Fewer Conditions

10-Day Weather Forecast

Almanac

Astronomia

Mar. 29, 2015 Alba Tramonto
Ora attuale
Crepuscolo civile
Crepuscolo nautico
Crepuscolo astronomico
Luna
Estensione della luce visibile
Lunghezza del giorno
Tomorrow will be .
, % of the Moon is Illuminated

Gli estremi di oggi

State Highs State Lows

Community

WunderPhotos

Upload Photos

1,809,187 foto caricate!

WunderBlogs® & News

Nearby

Qualità dell'aria

  Qualità dell'aria Indice AQ Inquinante
Not available.

Profondità neve

Stazione Profondità Altitudine

Attività sismica

Città  Distanza Mag. Data & Ora
Minimo Magnitudo Mostrato è 2.5.

Temperature delle acque costiere

Località Temperatura

Stations

Stazioni meteo nelle vicinanze

Ubicazione della stazione Temp. Raffreddamento del vento Punto di rugiada Umidità Vento Precip. Alt. Aggiornato Tipo